createdAt,value
2023-02-21T00:02:21.377Z,8.23
2023-02-21T00:07:25.132Z,8.33
2023-02-21T00:12:27.227Z,7.27
2023-02-21T00:17:29.320Z,6.67
2023-02-21T00:22:32.704Z,9.13
2023-02-21T00:27:34.816Z,6.73
2023-02-21T00:32:37.139Z,7.17
2023-02-21T00:37:40.285Z,6.93
2023-02-21T00:42:42.357Z,7.30
2023-02-21T00:47:44.557Z,11.50
2023-02-21T00:52:48.096Z,7.67
2023-02-21T00:57:49.860Z,9.00
2023-02-21T01:02:51.544Z,10.83
2023-02-21T01:07:55.230Z,10.07
2023-02-21T01:12:57.430Z,11.67
2023-02-21T01:17:59.518Z,8.77
2023-02-21T01:23:03.547Z,10.07
2023-02-21T01:28:05.709Z,11.17
2023-02-21T01:33:07.658Z,9.87
2023-02-21T01:38:11.461Z,10.40
2023-02-21T01:43:16.011Z,10.47
2023-02-21T01:48:21.517Z,8.13
2023-02-21T01:53:26.810Z,7.97
2023-02-21T01:58:32.491Z,8.17
2023-02-21T02:03:35.208Z,8.07
2023-02-21T02:08:39.004Z,8.53
2023-02-21T02:13:58.183Z,7.90
2023-02-21T02:19:33.248Z,7.57
2023-02-21T02:24:58.588Z,7.70
2023-02-21T02:30:23.922Z,7.40
2023-02-21T02:35:31.398Z,6.47
2023-02-21T02:40:36.559Z,8.53
2023-02-21T02:45:44.632Z,6.70
2023-02-21T02:50:50.790Z,8.87
2023-02-21T02:55:56.943Z,6.77
2023-02-21T03:01:21.135Z,8.33
2023-02-21T03:06:37.031Z,7.70
2023-02-21T03:11:49.568Z,7.60
2023-02-21T03:16:55.044Z,9.57
2023-02-21T03:22:01.761Z,8.40
2023-02-21T03:27:06.329Z,6.70
2023-02-21T03:32:12.957Z,7.60
2023-02-21T03:37:22.497Z,8.60
2023-02-21T03:42:24.660Z,10.00
2023-02-21T03:47:26.895Z,8.47
2023-02-21T03:52:30.537Z,11.33
2023-02-21T03:57:32.622Z,9.63
2023-02-21T04:02:37.481Z,8.93
2023-02-21T04:07:41.367Z,10.70
2023-02-21T04:12:43.533Z,11.13
2023-02-21T04:17:45.618Z,10.17
2023-02-21T04:23:01.536Z,9.97
2023-02-21T04:28:05.377Z,9.90
2023-02-21T04:33:07.414Z,11.37
2023-02-21T04:38:10.865Z,12.97
2023-02-21T04:43:13.158Z,10.87
2023-02-21T04:48:15.563Z,11.60
2023-02-21T04:53:21.749Z,10.67
2023-02-21T04:58:25.766Z,11.60
2023-02-21T05:03:29.307Z,10.50
2023-02-21T05:08:32.776Z,11.20
2023-02-21T05:13:34.726Z,11.13
2023-02-21T05:18:36.957Z,9.53
2023-02-21T05:23:41.262Z,10.87
2023-02-21T05:28:43.118Z,11.47
2023-02-21T05:33:45.513Z,10.33
2023-02-21T05:38:51.439Z,10.90
2023-02-21T05:43:53.894Z,11.83
2023-02-21T05:49:01.024Z,12.17
2023-02-21T05:54:05.113Z,11.33
2023-02-21T05:59:07.343Z,11.93
2023-02-21T06:04:09.808Z,13.33
2023-02-21T06:09:13.798Z,14.67
2023-02-21T06:14:18.210Z,14.00
2023-02-21T06:19:20.505Z,15.90
2023-02-21T06:24:24.035Z,12.67
2023-02-21T06:29:26.161Z,13.10
2023-02-21T06:34:28.879Z,14.30
2023-02-21T06:39:32.447Z,13.20
2023-02-21T06:44:34.503Z,14.00
2023-02-21T06:49:36.218Z,12.07
2023-02-21T06:54:39.824Z,13.37
2023-02-21T06:59:41.743Z,11.97
2023-02-21T07:04:43.948Z,11.90
2023-02-21T07:09:47.033Z,11.30
2023-02-21T07:14:49.298Z,10.37
2023-02-21T07:19:51.014Z,12.37
2023-02-21T07:24:54.730Z,8.73
2023-02-21T07:29:56.503Z,12.27
2023-02-21T07:34:58.609Z,12.83
2023-02-21T07:40:02.098Z,13.50
2023-02-21T07:45:04.522Z,13.40
2023-02-21T07:50:06.881Z,13.43
2023-02-21T07:55:10.553Z,11.20
2023-02-21T08:00:13.324Z,10.50
2023-02-21T08:05:16.189Z,10.80
2023-02-21T08:10:24.279Z,7.93
2023-02-21T08:15:26.225Z,10.83
2023-02-21T08:20:28.225Z,10.60
2023-02-21T08:25:31.399Z,10.30
2023-02-21T08:30:33.148Z,6.77
2023-02-21T08:35:35.669Z,7.10
2023-02-21T08:40:39.192Z,7.57
2023-02-21T08:45:41.124Z,5.67
2023-02-21T08:50:42.913Z,5.20
2023-02-21T08:55:46.689Z,4.47
2023-02-21T09:00:48.541Z,5.23
2023-02-21T09:05:50.272Z,3.20
2023-02-21T09:10:53.322Z,4.40
2023-02-21T09:15:56.082Z,1.63
2023-02-21T09:20:58.158Z,1.27
2023-02-21T09:26:01.763Z,1.27
2023-02-21T09:31:03.552Z,0.93
2023-02-21T09:36:06.264Z,1.37
2023-02-21T09:41:12.802Z,0.30
2023-02-21T09:46:19.294Z,0.90
2023-02-21T09:51:22.092Z,1.10
2023-02-21T09:56:29.760Z,1.33
2023-02-21T10:01:45.017Z,1.17
2023-02-21T10:06:52.662Z,2.60
2023-02-21T10:12:04.342Z,0.47
2023-02-21T10:17:16.914Z,0.90
2023-02-21T10:22:21.242Z,0.57
2023-02-21T10:27:26.660Z,2.10
2023-02-21T10:32:29.016Z,0.83
2023-02-21T10:37:40.306Z,0.73
2023-02-21T10:42:49.010Z,1.23
2023-02-21T10:48:00.455Z,0.53
2023-02-21T10:53:02.865Z,2.70
2023-02-21T10:58:18.593Z,1.13
2023-02-21T11:03:23.618Z,1.80
2023-02-21T11:08:37.078Z,1.10
2023-02-21T11:13:40.332Z,0.50
2023-02-21T11:18:42.685Z,3.97
2023-02-21T11:23:48.658Z,0.43
2023-02-21T11:28:53.110Z,0.40
2023-02-21T11:33:58.822Z,0.67
2023-02-21T11:39:04.972Z,1.57
2023-02-21T11:44:27.796Z,0.93
2023-02-21T11:49:39.081Z,0.37
2023-02-21T11:54:41.337Z,2.40
2023-02-21T11:59:52.089Z,0.30
2023-02-21T12:05:10.031Z,0.50
2023-02-21T12:10:41.216Z,3.23
2023-02-21T12:15:57.149Z,2.00
2023-02-21T12:21:33.283Z,0.80
2023-02-21T12:26:49.884Z,0.93
2023-02-21T12:32:16.286Z,3.27
2023-02-21T12:37:27.813Z,0.93
2023-02-21T12:42:52.942Z,1.07
2023-02-21T12:48:02.200Z,0.63
2023-02-21T12:53:11.544Z,1.40
2023-02-21T12:58:22.528Z,0.50
2023-02-21T13:03:40.228Z,1.27
2023-02-21T13:08:53.278Z,1.43
2023-02-21T13:13:56.721Z,4.07
2023-02-21T13:19:03.475Z,1.00
2023-02-21T13:36:26.183Z,0.47
2023-02-21T13:41:30.832Z,0.30
2023-02-21T13:47:14.289Z,2.17
2023-02-21T13:52:59.042Z,3.03
2023-02-21T13:58:33.223Z,0.90
2023-02-21T14:03:35.460Z,1.23
2023-02-21T14:08:42.557Z,1.13
2023-02-21T14:13:49.873Z,0.73
2023-02-21T14:18:55.879Z,0.63
2023-02-21T14:24:00.962Z,0.20
2023-02-21T14:29:14.771Z,1.17
2023-02-21T14:34:22.709Z,0.17
2023-02-21T14:39:30.656Z,0.93
2023-02-21T14:44:47.257Z,0.73
2023-02-21T14:50:16.503Z,0.10
2023-02-21T14:55:47.878Z,0.47
2023-02-21T15:01:03.231Z,0.20
2023-02-21T15:06:09.581Z,2.73
2023-02-21T15:11:24.091Z,0.40
2023-02-21T15:16:32.230Z,0.90
2023-02-21T15:21:33.973Z,0.60
2023-02-21T15:26:35.772Z,0.27
2023-02-21T15:31:42.500Z,0.50
2023-02-21T15:36:45.506Z,0.43
2023-02-21T15:41:50.553Z,0.53
2023-02-21T15:53:26.817Z,1.87
2023-02-21T15:58:28.617Z,1.20
2023-02-21T16:10:01.523Z,0.60
2023-02-21T16:15:08.446Z,1.00
2023-02-21T16:20:16.757Z,0.30
2023-02-21T16:25:22.849Z,3.30
2023-02-21T16:30:39.765Z,1.83
2023-02-21T16:35:42.328Z,2.07
2023-02-21T16:40:46.746Z,1.20
2023-02-21T16:45:49.521Z,2.03
2023-02-21T16:50:52.108Z,3.40
2023-02-21T16:55:56.309Z,1.70
2023-02-21T17:01:00.268Z,1.80
2023-02-21T17:06:02.408Z,1.57
2023-02-21T17:11:05.799Z,4.30
2023-02-21T17:16:08.954Z,1.20
2023-02-21T17:21:12.146Z,2.37
2023-02-21T17:26:16.639Z,2.70
2023-02-21T17:31:19.499Z,3.00
2023-02-21T17:36:25.197Z,4.53
2023-02-21T17:41:28.278Z,2.10
2023-02-21T17:46:30.460Z,2.93
2023-02-21T17:51:32.600Z,2.90
2023-02-21T17:56:36.194Z,1.50
2023-02-21T18:01:40.849Z,2.30
2023-02-21T18:06:42.821Z,5.10
2023-02-21T18:11:49.541Z,6.20
2023-02-21T18:16:51.666Z,2.00
2023-02-21T18:21:58.060Z,2.13
2023-02-21T18:27:19.468Z,1.47
2023-02-21T18:32:21.633Z,1.60
2023-02-21T18:43:18.772Z,2.60
2023-02-21T18:48:21.869Z,4.27
2023-02-21T18:53:29.343Z,6.70
2023-02-21T18:58:35.296Z,2.27
2023-02-21T19:03:42.089Z,3.77
2023-02-21T19:08:44.298Z,2.90
2023-02-21T19:13:54.037Z,2.40
2023-02-21T19:19:03.534Z,3.93
2023-02-21T19:24:15.471Z,2.43
2023-02-21T19:29:24.576Z,1.93
2023-02-21T19:34:35.927Z,3.30
2023-02-21T19:39:47.948Z,3.70
2023-02-21T19:45:09.491Z,5.77
2023-02-21T19:50:24.470Z,6.33
2023-02-21T19:55:33.257Z,2.73
2023-02-21T20:00:44.590Z,3.30
2023-02-21T20:05:46.823Z,3.33
2023-02-21T20:10:49.601Z,1.70
2023-02-21T20:15:53.507Z,3.73
2023-02-21T20:20:56.141Z,2.50
2023-02-21T20:25:58.899Z,4.83
2023-02-21T20:31:13.025Z,2.97
2023-02-21T20:36:16.560Z,5.00
2023-02-21T20:41:20.796Z,4.83
2023-02-21T20:46:25.764Z,2.57
2023-02-21T20:51:30.033Z,5.00
2023-02-21T20:56:33.504Z,6.80
2023-02-21T21:01:37.785Z,10.57
2023-02-21T21:06:40.230Z,4.83
2023-02-21T21:11:52.294Z,8.83
2023-02-21T21:16:57.655Z,7.37
2023-02-21T21:22:00.422Z,11.77
2023-02-21T21:27:03.717Z,9.13
2023-02-21T21:32:07.486Z,14.07
2023-02-21T21:37:10.110Z,12.17
2023-02-21T21:42:13.063Z,8.10
2023-02-21T21:47:16.421Z,11.40
2023-02-21T21:52:19.778Z,8.13
2023-02-21T21:57:21.764Z,13.40
2023-02-21T22:02:25.265Z,11.33
2023-02-21T22:07:27.578Z,7.17
2023-02-21T22:12:29.254Z,8.10
2023-02-21T22:17:32.604Z,8.30
2023-02-21T22:22:34.897Z,6.47
2023-02-21T22:27:37.046Z,9.47
2023-02-21T22:32:42.679Z,6.67
2023-02-21T22:37:46.353Z,7.13
2023-02-21T22:42:48.479Z,4.50
2023-02-21T22:47:53.381Z,14.77
2023-02-21T22:52:57.498Z,10.33
2023-02-21T22:57:59.961Z,9.70
2023-02-21T23:03:05.464Z,9.37
2023-02-21T23:08:07.297Z,5.63
2023-02-21T23:13:11.540Z,8.17
2023-02-21T23:18:17.161Z,19.27
2023-02-21T23:23:19.579Z,8.23
2023-02-21T23:28:21.704Z,13.20
2023-02-21T23:33:27.766Z,8.73
2023-02-21T23:38:29.830Z,10.57
2023-02-21T23:43:32.132Z,8.97
2023-02-21T23:48:35.623Z,8.97
2023-02-21T23:53:38.129Z,15.00
2023-02-21T23:58:44.322Z,6.40
